Time;durP1;ratioP1;P1;durP2;ratioP2;P2;SDS_P1;SDS_P2;PMS_P1;PMS_P2;Temp;Humidity;BMP_temperature;BMP_pressure;BME280_temperature;BME280_humidity;BME280_pressure;Samples;Min_cycle;Max_cycle;Signal;HPM_P1;HPM_P2
2022/03/27 00:01:49;;;;;;;4.63;2.33;;;;;;;7.42;100.00;101689.00;7398083;19;20038;-49
2022/03/27 00:04:15;;;;;;;5.13;2.13;;;;;;;7.37;100.00;101694.97;7395814;19;20010;-49
2022/03/27 00:06:42;;;;;;;3.83;2.85;;;;;;;7.28;100.00;101686.34;7395841;19;20013;-49
2022/03/27 00:09:08;;;;;;;7.07;1.48;;;;;;;7.25;100.00;101684.41;7393623;19;20027;-49
2022/03/27 00:11:34;;;;;;;2.72;1.27;;;;;;;7.21;100.00;101694.69;7396992;19;20023;-49
2022/03/27 00:14:04;;;;;;;11.88;2.10;;;;;;;7.19;100.00;101686.00;7390640;19;20044;-49
2022/03/27 00:16:32;;;;;;;3.60;1.80;;;;;;;7.18;100.00;101683.66;7394026;19;20011;-49
2022/03/27 00:18:59;;;;;;;2.85;1.73;;;;;;;7.11;100.00;101678.94;7394826;19;20030;-49
2022/03/27 00:21:26;;;;;;;2.53;1.38;;;;;;;7.08;100.00;101685.28;7397241;19;20021;-49
2022/03/27 00:23:53;;;;;;;8.70;2.38;;;;;;;7.06;100.00;101686.91;7394921;19;20015;-49
2022/03/27 00:26:20;;;;;;;3.38;1.83;;;;;;;7.07;100.00;101677.41;7395212;19;20006;-49
2022/03/27 00:28:48;;;;;;;5.88;2.10;;;;;;;7.03;100.00;101691.28;7391901;19;20007;-49
2022/03/27 00:31:15;;;;;;;4.43;2.28;;;;;;;7.03;100.00;101682.97;7396314;19;20381;-49
2022/03/27 00:33:43;;;;;;;1.65;1.52;;;;;;;7.01;100.00;101679.03;7393386;19;20029;-49
2022/03/27 00:36:13;;;;;;;3.35;1.20;;;;;;;6.95;100.00;101681.47;7392915;19;20090;-49
2022/03/27 00:38:40;;;;;;;2.97;1.15;;;;;;;6.96;100.00;101674.72;7393817;19;20010;-49
2022/03/27 00:41:08;;;;;;;8.27;2.10;;;;;;;6.95;100.00;101675.94;7395918;19;20011;-49
2022/03/27 00:43:35;;;;;;;6.35;3.08;;;;;;;6.95;100.00;101675.94;7394232;19;20010;-49
2022/03/27 00:46:01;;;;;;;2.15;0.95;;;;;;;6.91;100.00;101675.13;7392735;19;20022;-49
2022/03/27 00:48:28;;;;;;;6.03;1.90;;;;;;;6.89;100.00;101666.44;7393249;19;20022;-49
2022/03/27 00:50:54;;;;;;;6.00;1.95;;;;;;;6.88;100.00;101675.97;7396611;19;20010;-49
2022/03/27 00:53:23;;;;;;;1.98;1.88;;;;;;;6.86;100.00;101672.81;7393617;19;20011;-49
2022/03/27 00:55:50;;;;;;;4.00;2.15;;;;;;;6.87;100.00;101674.38;7393088;19;20026;-49
2022/03/27 00:58:16;;;;;;;2.17;1.67;;;;;;;6.84;100.00;101678.75;7392580;19;20011;-49
2022/03/27 01:00:47;;;;;;;4.68;1.58;;;;;;;6.80;100.00;101677.19;7394784;19;20343;-49
2022/03/27 01:03:23;;;;;;;2.55;1.48;;;;;;;6.72;100.00;101672.88;7391187;19;20691;-49
2022/03/27 01:05:52;;;;;;;3.25;1.67;;;;;;;6.68;100.00;101672.13;7393642;19;20011;-49
2022/03/27 01:11:20;;;;;;;7.25;2.15;;;;;;;6.61;100.00;101684.03;7395492;19;20047;-49
2022/03/27 01:13:53;;;;;;;7.68;2.17;;;;;;;6.61;100.00;101680.47;7393906;19;20037;-49
2022/03/27 01:16:41;;;;;;;5.53;2.00;;;;;;;6.57;100.00;101682.47;7393933;19;20409;-49
2022/03/27 01:19:10;;;;;;;2.08;1.88;;;;;;;6.53;100.00;101684.47;7393883;19;20019;-49
2022/03/27 01:21:40;;;;;;;3.45;1.65;;;;;;;6.50;100.00;101682.50;7395204;19;20022;-49
2022/03/27 01:24:07;;;;;;;2.17;1.13;;;;;;;6.52;100.00;101680.91;7392763;19;20010;-49
2022/03/27 01:26:34;;;;;;;5.35;2.67;;;;;;;6.52;100.00;101685.69;7395381;19;20454;-49
2022/03/27 01:29:00;;;;;;;1.60;1.30;;;;;;;6.48;100.00;101682.91;7398090;19;20026;-49
2022/03/27 01:31:27;;;;;;;6.90;2.97;;;;;;;6.46;100.00;101676.19;7402097;19;20462;-49
2022/03/27 01:33:54;;;;;;;1.48;1.30;;;;;;;6.43;100.00;101682.56;7400823;19;20021;-49
2022/03/27 01:36:25;;;;;;;9.80;2.80;;;;;;;6.37;100.00;101676.63;7400613;19;20355;-49
2022/03/27 01:38:53;;;;;;;13.30;2.65;;;;;;;6.31;100.00;101680.22;7399959;19;20014;-49
2022/03/27 01:41:20;;;;;;;6.10;2.00;;;;;;;6.28;100.00;101678.28;7402534;19;20011;-49
2022/03/27 01:43:47;;;;;;;5.38;1.88;;;;;;;6.23;100.00;101673.94;7399969;19;20014;-49
2022/03/27 01:46:13;;;;;;;7.55;2.10;;;;;;;6.20;100.00;101673.94;7399974;19;20015;-49
2022/03/27 01:48:39;;;;;;;4.10;1.58;;;;;;;6.17;100.00;101674.75;7398401;19;20087;-49
2022/03/27 01:51:06;;;;;;;4.95;2.55;;;;;;;6.17;100.00;101674.75;7400131;19;20007;-49
2022/03/27 01:53:32;;;;;;;2.38;1.55;;;;;;;6.20;100.00;101671.19;7401065;19;20551;-49
2022/03/27 01:55:58;;;;;;;6.07;1.20;;;;;;;6.19;100.00;101669.63;7396233;19;20018;-49
2022/03/27 01:58:24;;;;;;;5.10;2.75;;;;;;;6.15;100.00;101677.16;7399767;19;20359;-49
2022/03/27 02:00:51;;;;;;;3.63;1.65;;;;;;;6.10;100.00;101668.06;7400992;19;20040;-49
2022/03/27 02:03:17;;;;;;;1.85;1.38;;;;;;;6.11;100.00;101677.94;7400863;19;20006;-49
2022/03/27 02:05:44;;;;;;;1.20;1.17;;;;;;;6.10;100.00;101673.59;7398741;19;20015;-49
2022/03/27 02:08:12;;;;;;;3.30;1.90;;;;;;;6.13;100.00;101668.47;7398253;19;20038;-49
2022/03/27 02:10:40;;;;;;;1.75;1.58;;;;;;;6.18;100.00;101670.78;7400176;19;20063;-49
2022/03/27 02:13:15;;;;;;;2.65;2.45;;;;;;;6.20;100.00;101668.41;7398356;19;20034;-49
2022/03/27 02:15:41;;;;;;;2.10;1.90;;;;;;;6.18;100.00;101665.25;7398235;19;20014;-49
2022/03/27 02:18:11;;;;;;;5.78;3.08;;;;;;;6.15;100.00;101661.31;7399769;19;20086;-49
2022/03/27 02:20:37;;;;;;;7.40;2.38;;;;;;;6.11;100.00;101660.53;7399528;19;20494;-49
2022/03/27 02:23:03;;;;;;;1.70;1.60;;;;;;;6.06;100.00;101658.97;7399540;19;20015;-49
2022/03/27 02:25:29;;;;;;;3.20;2.50;;;;;;;5.99;100.00;101656.25;7399048;19;20021;-49
2022/03/27 02:27:55;;;;;;;4.68;1.42;;;;;;;5.96;100.00;101659.81;7396633;19;20347;-49
2022/03/27 02:30:21;;;;;;;3.97;1.58;;;;;;;5.94;100.00;101662.19;7398691;19;20049;-49
2022/03/27 02:32:48;;;;;;;3.33;2.72;;;;;;;5.87;100.00;101655.88;7397201;19;20562;-49
2022/03/27 02:35:14;;;;;;;4.50;2.58;;;;;;;5.83;100.00;101650.34;7399086;19;20046;-49
2022/03/27 02:37:40;;;;;;;5.38;2.72;;;;;;;5.83;100.00;101666.94;7398508;19;20026;-49
2022/03/27 02:40:07;;;;;;;4.47;1.60;;;;;;;5.82;100.00;101654.31;7398234;19;20018;-48
2022/03/27 02:42:33;;;;;;;4.10;2.65;;;;;;;5.81;100.00;101647.19;7402005;19;20346;-49
2022/03/27 02:44:59;;;;;;;6.93;1.60;;;;;;;5.79;100.00;101649.56;7398005;19;20400;-49
2022/03/27 02:47:25;;;;;;;6.75;2.67;;;;;;;5.76;100.00;101650.34;7396312;19;20368;-49
2022/03/27 02:49:51;;;;;;;3.92;2.67;;;;;;;5.74;100.00;101649.97;7398754;19;20353;-49
2022/03/27 02:52:18;;;;;;;2.20;2.00;;;;;;;5.74;100.00;101657.50;7402311;19;20014;-49
2022/03/27 02:54:44;;;;;;;1.10;1.00;;;;;;;5.74;100.00;101651.97;7398571;19;20249;-49
2022/03/27 02:57:10;;;;;;;5.43;1.98;;;;;;;5.72;100.00;101638.53;7395232;19;20015;-49
2022/03/27 02:59:37;;;;;;;4.70;2.25;;;;;;;5.71;100.00;101650.78;7398357;19;20034;-49
2022/03/27 03:02:04;;;;;;;4.45;2.20;;;;;;;5.66;100.00;101645.66;7400695;19;20032;-48
2022/03/27 03:04:30;;;;;;;2.20;1.75;;;;;;;5.62;100.00;101644.88;7393000;19;20025;-48
2022/03/27 03:06:58;;;;;;;3.97;1.73;;;;;;;5.57;100.00;101647.25;7396127;19;20021;-48
2022/03/27 03:09:24;;;;;;;2.97;2.38;;;;;;;5.53;100.00;101646.47;7397617;19;20490;-48
2022/03/27 03:11:50;;;;;;;1.30;1.30;;;;;;;5.47;100.00;101648.06;7398819;19;20015;-48
2022/03/27 03:14:16;;;;;;;2.67;1.63;;;;;;;5.41;100.00;101647.69;7397886;19;20015;-49
2022/03/27 03:16:45;;;;;;;9.50;1.77;;;;;;;5.37;100.00;101649.66;7396297;19;20847;-49
2022/03/27 03:19:11;;;;;;;9.60;2.85;;;;;;;5.36;100.00;101648.06;7396571;19;20011;-48
2022/03/27 03:21:38;;;;;;;1.90;1.65;;;;;;;5.35;100.00;101652.00;7400967;19;20028;-48
2022/03/27 03:24:05;;;;;;;6.55;1.98;;;;;;;5.32;100.00;101647.28;7397128;19;20010;-49
2022/03/27 03:26:31;;;;;;;1.65;1.30;;;;;;;5.32;100.00;101652.81;7396152;19;20015;-49
2022/03/27 03:28:58;;;;;;;5.10;1.33;;;;;;;5.25;100.00;101659.13;7395934;19;20014;-48
2022/03/27 03:31:24;;;;;;;2.83;1.65;;;;;;;5.18;100.00;101655.56;7400126;19;20073;-49
2022/03/27 03:33:50;;;;;;;5.32;2.03;;;;;;;5.16;100.00;101655.19;7397205;19;20371;-48
2022/03/27 03:36:16;;;;;;;2.53;1.90;;;;;;;5.11;100.00;101652.84;7396080;19;20372;-48
2022/03/27 03:38:42;;;;;;;2.75;1.13;;;;;;;5.09;100.00;101650.44;7396364;19;20041;-48
2022/03/27 03:41:09;;;;;;;1.27;1.27;;;;;;;5.04;100.00;101653.63;7397612;19;20787;-49
2022/03/27 03:43:38;;;;;;;3.13;1.52;;;;;;;5.04;100.00;101655.59;7397080;19;20499;-48
2022/03/27 03:46:05;;;;;;;1.63;1.50;;;;;;;5.05;100.00;101657.16;7394939;19;20463;-49
2022/03/27 03:48:32;;;;;;;3.28;2.10;;;;;;;5.08;100.00;101654.41;7394396;19;20029;-49
2022/03/27 03:50:58;;;;;;;4.18;2.17;;;;;;;5.15;100.00;101653.63;7396266;19;20101;-48
2022/03/27 03:53:26;;;;;;;5.82;1.60;;;;;;;5.17;100.00;101652.03;7395716;19;20018;-49
2022/03/27 03:55:52;;;;;;;2.35;2.05;;;;;;;5.19;100.00;101654.41;7395234;19;20492;-48
2022/03/27 03:58:18;;;;;;;5.30;1.38;;;;;;;5.20;100.00;101647.69;7395928;19;20010;-48
2022/03/27 04:00:46;;;;;;;2.05;1.88;;;;;;;5.17;100.00;101654.00;7397624;19;20040;-49
2022/03/27 04:03:16;;;;;;;7.03;2.10;;;;;;;5.10;100.00;101640.19;7395701;19;20015;-49
2022/03/27 04:05:42;;;;;;;5.63;1.67;;;;;;;5.10;100.00;101645.72;7396122;19;20062;-48
2022/03/27 04:08:08;;;;;;;2.00;1.23;;;;;;;5.11;100.00;101647.31;7395072;19;20336;-48
2022/03/27 04:10:34;;;;;;;2.80;2.28;;;;;;;5.18;100.00;101647.28;7396584;19;20454;-48
2022/03/27 04:13:01;;;;;;;7.32;2.70;;;;;;;5.22;100.00;101642.53;7395830;19;20011;-48
2022/03/27 04:15:27;;;;;;;1.75;1.63;;;;;;;5.29;100.00;101648.06;7395696;19;20466;-48
2022/03/27 04:17:53;;;;;;;6.65;2.35;;;;;;;5.33;100.00;101640.56;7395880;19;20034;-49
2022/03/27 04:20:19;;;;;;;2.28;1.65;;;;;;;5.32;100.00;101633.47;7393661;19;20015;-48
2022/03/27 04:22:46;;;;;;;3.53;2.30;;;;;;;5.30;100.00;101631.13;7399135;19;20506;-48
2022/03/27 04:25:13;;;;;;;3.10;1.70;;;;;;;5.36;100.00;101637.03;7395430;19;20498;-48
2022/03/27 04:27:39;;;;;;;5.68;2.50;;;;;;;5.39;100.00;101630.72;7394234;19;20025;-49
2022/03/27 04:30:08;;;;;;;1.23;1.13;;;;;;;5.41;100.00;101622.81;7395239;19;20099;-48
2022/03/27 04:32:35;;;;;;;4.00;2.50;;;;;;;5.43;100.00;101627.94;7398744;19;20479;-48
2022/03/27 04:35:01;;;;;;;15.68;2.88;;;;;;;5.39;100.00;101619.66;7394955;19;20019;-48
2022/03/27 04:37:27;;;;;;;1.98;1.88;;;;;;;5.38;100.00;101618.88;7393680;19;20021;-49
2022/03/27 04:40:01;;;;;;;3.75;2.17;;;;;;;5.33;100.00;101622.03;7393190;19;20360;-49
2022/03/27 04:42:28;;;;;;;2.83;2.28;;;;;;;5.36;100.00;101620.44;7399002;19;20463;-48
2022/03/27 04:44:54;;;;;;;4.32;1.67;;;;;;;5.39;100.00;101614.16;7395283;19;20015;-49
2022/03/27 04:47:21;;;;;;;5.93;2.53;;;;;;;5.41;100.00;101617.28;7394864;19;20078;-49
2022/03/27 04:49:47;;;;;;;7.00;1.80;;;;;;;5.38;100.00;101616.09;7395725;19;20025;-49
2022/03/27 04:52:13;;;;;;;3.78;2.95;;;;;;;5.35;100.00;101613.34;7398878;19;20014;-48
2022/03/27 04:54:40;;;;;;;8.85;2.60;;;;;;;5.29;100.00;101610.19;7398968;19;20016;-48
2022/03/27 04:57:06;;;;;;;2.63;1.60;;;;;;;5.22;100.00;101610.19;7393898;19;20014;-49
2022/03/27 04:59:33;;;;;;;7.32;3.28;;;;;;;5.18;100.00;101619.66;7393814;19;20010;-48
2022/03/27 05:02:01;;;;;;;3.03;1.60;;;;;;;5.16;100.00;101616.53;7394205;19;20015;-48
2022/03/27 05:04:28;;;;;;;5.90;1.95;;;;;;;5.14;100.00;101616.13;7394401;19;20058;-49
2022/03/27 05:06:54;;;;;;;4.13;2.22;;;;;;;5.17;100.00;101626.41;7395120;19;20031;-48
2022/03/27 05:09:20;;;;;;;20.10;1.63;;;;;;;5.16;100.00;101616.53;7393221;19;20010;-49
2022/03/27 05:11:47;;;;;;;9.63;2.13;;;;;;;5.19;100.00;101610.22;7396825;19;20018;-49
2022/03/27 05:14:13;;;;;;;5.20;2.92;;;;;;;5.22;100.00;101614.94;7392635;19;20015;-49
2022/03/27 05:16:39;;;;;;;3.75;2.45;;;;;;;5.21;100.00;101608.63;7392438;19;20014;-49
2022/03/27 05:19:06;;;;;;;6.20;3.67;;;;;;;5.22;100.00;101615.72;7393867;19;20010;-48
2022/03/27 05:21:33;;;;;;;8.02;2.35;;;;;;;5.26;100.00;101616.50;7396161;19;20032;-49
2022/03/27 05:24:00;;;;;;;3.95;1.70;;;;;;;5.26;100.00;101615.75;7393610;19;20006;-49
2022/03/27 05:26:26;;;;;;;6.07;2.38;;;;;;;5.20;100.00;101611.78;7392276;19;20010;-49
2022/03/27 05:28:54;;;;;;;1.40;1.30;;;;;;;5.16;100.00;101613.75;7391305;19;20384;-48
2022/03/27 05:31:21;;;;;;;6.22;2.90;;;;;;;5.10;100.00;101613.38;7396147;19;20406;-49
2022/03/27 05:33:47;;;;;;;5.30;1.75;;;;;;;5.11;100.00;101614.94;7393700;19;20019;-49
2022/03/27 05:36:13;;;;;;;2.63;2.22;;;;;;;5.09;100.00;101619.31;7391837;19;20346;-49
2022/03/27 05:38:40;;;;;;;2.65;1.83;;;;;;;5.03;100.00;101618.09;7392780;19;20355;-49
2022/03/27 05:41:09;;;;;;;1.83;1.35;;;;;;;4.93;100.00;101613.38;7395036;19;20070;-49
2022/03/27 05:43:36;;;;;;;1.73;1.63;;;;;;;4.86;100.00;101614.16;7392264;19;20014;-48
2022/03/27 05:46:03;;;;;;;7.97;1.75;;;;;;;4.81;100.00;101619.31;7393340;19;20014;-48
2022/03/27 05:48:29;;;;;;;2.92;2.50;;;;;;;4.81;100.00;101622.81;7391063;19;20362;-48
2022/03/27 05:50:56;;;;;;;15.48;3.10;;;;;;;4.78;100.00;101617.31;7393879;19;20034;-48
2022/03/27 05:53:23;;;;;;;7.47;1.80;;;;;;;4.76;100.00;101625.19;7391366;19;20018;-49
2022/03/27 05:55:49;;;;;;;2.60;1.85;;;;;;;4.76;100.00;101631.53;7393363;19;20021;-48
2022/03/27 05:58:18;;;;;;;5.95;2.05;;;;;;;4.74;100.00;101624.81;7391971;19;20014;-48
2022/03/27 06:00:44;;;;;;;4.60;3.08;;;;;;;4.72;100.00;101629.94;7392546;19;20007;-48
2022/03/27 06:03:11;;;;;;;15.63;3.65;;;;;;;4.74;100.00;101630.31;7391214;19;20014;-48
2022/03/27 06:05:37;;;;;;;6.47;3.58;;;;;;;4.72;100.00;101630.69;7392510;19;20015;-48
2022/03/27 06:08:04;;;;;;;11.38;3.08;;;;;;;4.71;100.00;101636.63;7390594;19;20014;-48
2022/03/27 06:10:32;;;;;;;3.97;2.22;;;;;;;4.66;100.00;101628.75;7391967;19;20027;-49
2022/03/27 06:13:00;;;;;;;21.45;3.38;;;;;;;4.62;100.00;101631.47;7395469;19;20007;-48
2022/03/27 06:15:27;;;;;;;3.80;2.55;;;;;;;4.63;100.00;101624.78;7399376;19;20007;-48
2022/03/27 06:17:54;;;;;;;3.05;2.47;;;;;;;4.65;100.00;101625.19;7399673;19;20388;-48
2022/03/27 06:20:23;;;;;;;7.18;2.75;;;;;;;4.63;100.00;101630.31;7400182;19;20021;-48
2022/03/27 06:22:50;;;;;;;3.20;2.42;;;;;;;4.63;100.00;101630.31;7399792;19;20010;-48
2022/03/27 06:25:21;;;;;;;4.00;2.40;;;;;;;4.69;100.00;101630.69;7399674;19;20031;-48
2022/03/27 06:27:49;;;;;;;2.50;1.45;;;;;;;4.61;100.00;101627.94;7398453;19;20472;-48
2022/03/27 06:30:17;;;;;;;2.78;1.52;;;;;;;4.63;100.00;101633.06;7397188;19;20390;-48
2022/03/27 06:32:44;;;;;;;9.45;3.03;;;;;;;4.65;100.00;101624.41;7397684;19;20006;-48
2022/03/27 06:35:12;;;;;;;7.32;2.90;;;;;;;4.68;100.00;101631.91;7398900;19;20023;-48
2022/03/27 06:37:40;;;;;;;2.85;2.65;;;;;;;4.69;100.00;101630.69;7398735;19;20015;-48
2022/03/27 06:40:07;;;;;;;7.45;2.25;;;;;;;4.69;100.00;101636.22;7398967;19;20038;-48
2022/03/27 06:42:34;;;;;;;8.18;2.58;;;;;;;4.70;100.00;101640.56;7402900;19;20098;-48
2022/03/27 06:45:00;;;;;;;3.05;2.17;;;;;;;4.74;100.00;101638.59;7398001;19;20011;-49
2022/03/27 06:47:27;;;;;;;3.53;2.15;;;;;;;4.76;100.00;101622.44;7398437;19;20047;-48
2022/03/27 06:49:56;;;;;;;2.53;2.22;;;;;;;4.79;100.00;101636.22;7396612;19;20014;-48
2022/03/27 06:52:25;;;;;;;5.90;3.22;;;;;;;4.84;100.00;101626.78;7398762;19;20066;-48
2022/03/27 06:54:52;;;;;;;4.75;1.42;;;;;;;4.93;100.00;101619.69;7399073;19;20011;-48
2022/03/27 06:57:18;;;;;;;6.38;1.92;;;;;;;5.02;100.00;101619.31;7398017;19;20018;-48
2022/03/27 07:05:14;;;;;;;3.30;2.67;;;;;;;5.41;100.00;101610.97;7396515;19;20381;-48
2022/03/27 07:07:44;;;;;;;2.30;2.20;;;;;;;5.49;100.00;101612.53;7397903;19;20015;-49
2022/03/27 07:10:11;;;;;;;5.82;1.58;;;;;;;5.55;100.00;101599.88;7397637;19;20423;-48
2022/03/27 07:12:38;;;;;;;2.47;1.63;;;;;;;5.65;100.00;101604.59;7401956;19;20014;-49
2022/03/27 07:15:06;;;;;;;2.42;2.20;;;;;;;5.70;100.00;101602.22;7397791;19;20466;-48
2022/03/27 07:17:33;;;;;;;4.22;2.40;;;;;;;5.76;100.00;101599.84;7396411;19;20110;-48
2022/03/27 07:19:59;;;;;;;11.32;4.00;;;;;;;5.83;100.00;101603.34;7397983;19;20010;-48
2022/03/27 07:22:25;;;;;;;16.73;3.58;;;;;;;5.88;100.00;101602.97;7401660;19;20489;-49
2022/03/27 07:24:52;;;;;;;9.45;4.40;;;;;;;5.93;100.00;101602.53;7395232;19;20376;-49
2022/03/27 07:27:18;;;;;;;11.52;4.32;;;;;;;6.00;100.00;101605.28;7396224;19;20070;-48
2022/03/27 07:29:44;;;;;;;7.20;4.28;;;;;;;6.09;100.00;101602.88;7395347;19;20363;-49
2022/03/27 07:32:11;;;;;;;6.85;3.17;;;;;;;6.13;100.00;101595.34;7398249;19;20490;-49
2022/03/27 07:34:37;;;;;;;9.32;3.13;;;;;;;6.28;100.00;101598.06;7395474;19;20022;-49
2022/03/27 07:37:03;;;;;;;9.70;2.53;;;;;;;6.40;100.00;101600.34;7396352;19;20351;-48
2022/03/27 07:39:30;;;;;;;5.50;2.95;;;;;;;6.56;100.00;101598.63;7396540;19;20023;-48
2022/03/27 07:41:56;;;;;;;5.40;2.72;;;;;;;6.63;100.00;101592.28;7397866;19;20038;-48
2022/03/27 07:44:23;;;;;;;10.18;2.05;;;;;;;6.74;100.00;101595.75;7393114;19;20011;-48
2022/03/27 07:46:50;;;;;;;8.02;3.17;;;;;;;6.88;100.00;101603.97;7394606;19;20018;-48
2022/03/27 07:49:16;;;;;;;3.80;1.10;;;;;;;6.99;100.00;101601.91;7396805;19;20014;-49
2022/03/27 07:51:43;;;;;;;1.40;1.25;;;;;;;7.10;100.00;101593.50;7398649;19;20014;-48
2022/03/27 07:54:09;;;;;;;4.47;1.55;;;;;;;7.18;100.00;101595.78;7395646;19;20010;-49
2022/03/27 07:56:36;;;;;;;4.47;2.35;;;;;;;7.34;100.00;101596.00;7395272;19;20010;-49
2022/03/27 07:59:02;;;;;;;10.02;3.83;;;;;;;7.43;100.00;101601.88;7398236;19;20018;-49
2022/03/27 08:01:29;;;;;;;2.92;2.05;;;;;;;7.53;100.00;101595.44;7398425;19;20042;-49
2022/03/27 08:03:56;;;;;;;7.25;2.67;;;;;;;7.65;100.00;101592.13;7393222;19;20009;-49
2022/03/27 08:06:23;;;;;;;7.68;2.38;;;;;;;7.77;100.00;101596.34;7394766;19;20017;-49
2022/03/27 08:08:49;;;;;;;2.53;1.50;;;;;;;7.92;100.00;101595.00;7395849;19;20010;-49
2022/03/27 08:11:15;;;;;;;7.43;2.30;;;;;;;8.07;100.00;101601.94;7394873;19;20044;-49
2022/03/27 08:13:43;;;;;;;3.63;1.55;;;;;;;8.27;100.00;101599.31;7395519;19;20014;-49
2022/03/27 08:16:09;;;;;;;6.30;2.55;;;;;;;8.43;100.00;101593.94;7395150;19;20015;-49
2022/03/27 08:18:36;;;;;;;7.38;2.63;;;;;;;8.55;100.00;101598.13;7397008;19;20018;-49
2022/03/27 08:21:02;;;;;;;2.47;2.28;;;;;;;8.65;100.00;101597.16;7392857;19;20402;-49
2022/03/27 08:23:28;;;;;;;9.77;2.30;;;;;;;8.76;100.00;101598.59;7397250;19;20508;-49
2022/03/27 08:28:40;;;;;;;7.47;2.97;;;;;;;9.15;100.00;101598.72;7396135;19;20360;-49
2022/03/27 08:31:06;;;;;;;8.30;3.08;;;;;;;9.30;100.00;101592.91;7395139;19;20009;-49
2022/03/27 08:33:32;;;;;;;7.50;2.70;;;;;;;9.46;100.00;101595.81;7398016;19;20014;-49
2022/03/27 08:35:59;;;;;;;5.72;3.10;;;;;;;9.67;100.00;101585.06;7392547;19;20014;-48
2022/03/27 08:38:25;;;;;;;3.17;2.38;;;;;;;9.89;100.00;101590.97;7394244;19;20331;-49
2022/03/27 08:40:54;;;;;;;3.15;1.50;;;;;;;10.09;100.00;101586.16;7394846;19;20010;-48
2022/03/27 08:43:20;;;;;;;4.88;1.42;;;;;;;10.29;100.00;101584.16;7394660;19;20015;-48
2022/03/27 08:45:46;;;;;;;2.67;1.00;;;;;;;10.56;100.00;101590.34;7394380;19;20478;-48
2022/03/27 08:48:13;;;;;;;4.30;1.15;;;;;;;10.89;100.00;101593.13;7393253;19;20010;-48
2022/03/27 08:51:09;;;;;;;5.07;1.42;;;;;;;11.24;100.00;101583.88;7395451;19;20014;-48
2022/03/27 08:53:57;;;;;;;7.45;1.45;;;;;;;11.55;100.00;101587.81;7393965;19;20010;-48
2022/03/27 08:56:24;;;;;;;6.32;1.50;;;;;;;11.99;100.00;101581.41;7388893;19;20035;-49
2022/03/27 08:58:55;;;;;;;1.02;1.02;;;;;;;12.38;100.00;101585.03;7392859;19;20011;-48
2022/03/27 09:01:21;;;;;;;2.47;1.23;;;;;;;12.69;100.00;101581.22;7396683;19;20018;-49
2022/03/27 09:03:47;;;;;;;1.98;1.27;;;;;;;12.90;100.00;101580.56;7394609;19;20099;-49
2022/03/27 09:06:13;;;;;;;1.20;1.08;;;;;;;13.06;100.00;101574.06;7394545;19;20026;-49
2022/03/27 09:08:40;;;;;;;5.07;1.27;;;;;;;13.24;100.00;101579.03;7392565;19;20522;-49
2022/03/27 09:11:06;;;;;;;4.38;1.48;;;;;;;13.45;100.00;101576.28;7395783;19;20069;-49
2022/03/27 09:13:32;;;;;;;2.67;1.20;;;;;;;13.65;100.00;101578.78;7393795;19;20376;-49
2022/03/27 09:16:05;;;;;;;5.95;1.67;;;;;;;13.86;100.00;101574.44;7393324;19;20015;-49
2022/03/27 09:18:55;;;;;;;2.00;0.90;;;;;;;14.02;100.00;101577.00;7394343;19;20034;-49
2022/03/27 09:21:23;;;;;;;2.33;0.85;;;;;;;14.07;100.00;101579.22;7396393;19;20080;-49
2022/03/27 09:23:54;;;;;;;2.13;0.60;;;;;;;14.20;100.00;101577.13;7394235;19;20030;-49
2022/03/27 09:26:21;;;;;;;;;;;;;;;14.36;100.00;101565.72;7394244;19;20021;-49
2022/03/27 09:28:49;;;;;;;1.50;0.63;;;;;;;14.51;100.00;101572.31;7391786;19;19919;-49
2022/03/27 09:31:19;;;;;;;3.20;1.00;;;;;;;14.69;100.00;101566.78;7393336;19;20367;-49
2022/03/27 09:33:48;;;;;;;1.05;0.50;;;;;;;14.88;100.00;101565.59;7392683;19;20382;-49
2022/03/27 09:36:17;;;;;;;2.13;1.40;;;;;;;15.01;100.00;101566.25;7392536;19;20006;-49
2022/03/27 09:39:13;;;;;;;7.30;1.77;;;;;;;15.08;100.00;101560.34;7394190;19;20018;-49
2022/03/27 09:41:54;;;;;;;4.97;1.13;;;;;;;15.12;100.00;101557.38;7394181;19;20025;-49
2022/03/27 09:44:23;;;;;;;2.72;0.85;;;;;;;15.25;100.00;101557.22;7391561;19;20022;-49
2022/03/27 09:47:05;;;;;;;1.73;1.02;;;;;;;15.31;100.00;101558.19;7393471;19;20017;-49
2022/03/27 09:49:31;;;;;;;3.85;1.40;;;;;;;15.32;100.00;101552.09;7402718;19;20062;-49
2022/03/27 09:52:00;;;;;;;3.17;1.48;;;;;;;15.32;100.00;101551.31;7403639;19;20034;-49
2022/03/27 09:54:29;;;;;;;1.25;1.15;;;;;;;15.46;100.00;101556.34;7399399;19;20403;-49
2022/03/27 09:56:56;;;;;;;1.60;1.02;;;;;;;15.75;100.00;101548.19;7398912;19;20015;-49
2022/03/27 09:59:40;;;;;;;0.75;0.57;;;;;;;16.12;100.00;101546.09;7400736;19;20014;-49
2022/03/27 10:02:15;;;;;;;2.17;0.90;;;;;;;16.35;100.00;101542.59;7402416;19;20021;-49
2022/03/27 10:04:56;;;;;;;3.60;0.82;;;;;;;16.57;100.00;101538.28;7399075;19;20010;-49
2022/03/27 10:07:24;;;;;;;;;;;;;;;16.67;100.00;101531.34;7400816;19;20010;-49
2022/03/27 10:09:51;;;;;;;4.82;1.42;;;;;;;16.52;100.00;101529.75;7396845;19;20337;-49
2022/03/27 10:12:18;;;;;;;3.78;0.90;;;;;;;16.30;100.00;101534.78;7396202;19;20010;-49
2022/03/27 10:14:47;;;;;;;3.10;1.90;;;;;;;16.26;100.00;101523.72;7396748;19;20010;-49
2022/03/27 10:18:28;;;;;;;3.35;1.90;;;;;;;16.41;100.00;101518.97;7422905;19;20697;-79
2022/03/27 10:20:58;;;;;;;3.15;2.10;;;;;;;16.54;100.00;101528.00;7428486;19;20014;-87
2022/03/27 10:23:27;;;;;;;4.03;1.23;;;;;;;16.48;100.00;101521.44;7425877;19;20022;-87
2022/03/27 10:25:57;;;;;;;3.60;1.45;;;;;;;16.41;100.00;101532.25;7431222;19;20027;-87
2022/03/27 10:28:24;;;;;;;7.63;1.88;;;;;;;16.41;100.00;101524.59;7432118;19;20006;-89
2022/03/27 10:30:52;;;;;;;5.18;1.33;;;;;;;16.54;100.00;101516.75;7430326;19;20437;-85
2022/03/27 10:33:23;;;;;;;4.00;1.70;;;;;;;16.72;100.00;101515.09;7439282;19;20024;-84
2022/03/27 10:36:19;;;;;;;5.35;1.35;;;;;;;17.01;100.00;101515.22;7429295;19;20014;-86
2022/03/27 10:39:28;;;;;;;3.58;1.05;;;;;;;17.01;100.00;101516.00;7425878;19;20006;-81
2022/03/27 10:42:19;;;;;;;1.13;0.60;;;;;;;16.85;100.00;101510.03;7427830;19;20014;-85
2022/03/27 10:44:53;;;;;;;2.22;1.02;;;;;;;16.82;100.00;101508.94;7426592;19;20055;-85
2022/03/27 10:47:22;;;;;;;3.17;1.30;;;;;;;16.96;100.00;101510.22;7426351;19;20022;-83
2022/03/27 10:50:00;;;;;;;2.70;0.70;;;;;;;16.95;100.00;101505.88;7427782;19;20014;-81
2022/03/27 10:52:31;;;;;;;4.82;1.10;;;;;;;16.90;100.00;101501.69;7428700;19;20006;-94
2022/03/27 10:55:12;;;;;;;1.38;0.85;;;;;;;16.94;100.00;101504.31;7428341;19;20026;-82
2022/03/27 10:57:40;;;;;;;3.43;0.90;;;;;;;17.03;100.00;101501.44;7428303;19;20018;-96
2022/03/27 11:00:09;;;;;;;2.28;0.65;;;;;;;17.03;100.00;101493.78;7429068;19;20587;-95
2022/03/27 11:02:53;;;;;;;3.42;1.23;;;;;;;17.07;100.00;101496.41;7425782;19;20019;-91
2022/03/27 11:05:31;;;;;;;0.80;0.65;;;;;;;17.13;100.00;101480.41;7428507;19;20085;-88
2022/03/27 11:08:19;;;;;;;4.45;0.50;;;;;;;17.28;100.00;101484.78;7424898;19;20123;-83
2022/03/27 11:10:50;;;;;;;2.53;0.50;;;;;;;17.54;100.00;101473.81;7424563;19;20505;-90
2022/03/27 11:13:25;;;;;;;;;;;;;;;17.77;100.00;101475.75;7425447;19;20033;-86
2022/03/27 11:16:14;;;;;;;2.70;0.98;;;;;;;17.97;100.00;101470.22;7421233;19;19922;-84
2022/03/27 11:18:44;;;;;;;2.15;0.75;;;;;;;18.08;100.00;101458.34;7421518;19;20364;-88
2022/03/27 11:21:13;;;;;;;4.10;1.20;;;;;;;18.18;100.00;101454.13;7422399;19;20010;-85
2022/03/27 11:23:41;;;;;;;1.23;0.70;;;;;;;18.26;100.00;101465.78;7427611;19;20018;-88
2022/03/27 11:26:19;;;;;;;2.33;0.70;;;;;;;18.36;100.00;101467.22;7425734;19;20014;-95
2022/03/27 11:29:22;;;;;;;1.15;0.75;;;;;;;18.29;100.00;101464.78;7412430;19;20372;-93
2022/03/27 11:32:09;;;;;;;0.77;0.32;;;;;;;18.38;100.00;101461.84;7401525;19;20034;-96
2022/03/27 11:34:36;;;;;;;2.22;0.65;;;;;;;18.46;100.00;101460.19;7399697;19;20022;-95
2022/03/27 11:37:23;;;;;;;1.38;0.77;;;;;;;18.56;100.00;101465.22;7403873;19;20011;-95
2022/03/27 11:39:51;;;;;;;2.67;0.90;;;;;;;18.66;100.00;101461.00;7398116;19;20570;-88
2022/03/27 11:42:35;;;;;;;6.63;0.73;;;;;;;18.65;100.00;101459.44;7403555;19;20259;-87
2022/03/27 11:45:21;;;;;;;4.07;1.45;;;;;;;18.90;100.00;101464.41;7404199;19;20033;-89